createdAt,value
2018-09-15T00:00:44.212Z,20.61
2018-09-15T00:03:11.659Z,20.66
2018-09-15T00:05:39.102Z,20.68
2018-09-15T00:08:06.496Z,20.68
2018-09-15T00:10:34.229Z,20.67
2018-09-15T00:13:01.749Z,20.58
2018-09-15T00:15:29.202Z,20.51
2018-09-15T00:17:56.659Z,20.42
2018-09-15T00:20:24.100Z,20.35
2018-09-15T00:22:51.630Z,20.34
2018-09-15T00:25:19.187Z,20.32
2018-09-15T00:27:46.701Z,20.27
2018-09-15T00:30:14.176Z,20.20
2018-09-15T00:32:41.583Z,20.12
2018-09-15T00:35:09.040Z,20.02
2018-09-15T00:37:36.572Z,19.87
2018-09-15T00:40:04.988Z,19.87
2018-09-15T00:42:32.509Z,19.94
2018-09-15T00:44:59.966Z,19.95
2018-09-15T00:47:27.430Z,19.94
2018-09-15T00:49:54.859Z,19.94
2018-09-15T00:52:22.463Z,19.95
2018-09-15T00:54:49.917Z,19.90
2018-09-15T00:57:17.335Z,19.89
2018-09-15T00:59:44.942Z,19.75
2018-09-15T01:02:12.386Z,19.53
2018-09-15T01:04:39.827Z,19.28
2018-09-15T01:07:07.504Z,19.15
2018-09-15T01:09:35.032Z,19.08
2018-09-15T01:12:03.258Z,19.14
2018-09-15T01:14:30.793Z,19.14
2018-09-15T01:16:58.248Z,19.18
2018-09-15T01:19:25.769Z,19.29
2018-09-15T01:21:53.223Z,19.26
2018-09-15T01:24:21.126Z,19.29
2018-09-15T01:26:48.555Z,19.29
2018-09-15T01:29:16.030Z,19.28
2018-09-15T01:31:43.512Z,19.19
2018-09-15T01:34:10.932Z,19.12
2018-09-15T01:36:38.427Z,19.14
2018-09-15T01:39:05.904Z,19.14
2018-09-15T01:41:33.306Z,19.13
2018-09-15T01:44:00.736Z,19.04
2018-09-15T01:46:28.411Z,18.95
2018-09-15T01:48:55.918Z,18.77
2018-09-15T01:51:23.350Z,18.75
2018-09-15T01:53:50.758Z,18.86
2018-09-15T01:56:18.254Z,18.92
2018-09-15T01:58:45.737Z,18.87
2018-09-15T02:01:13.162Z,18.75
2018-09-15T02:03:40.574Z,18.57
2018-09-15T02:06:08.031Z,18.46
2018-09-15T02:08:35.426Z,18.44
2018-09-15T02:11:03.213Z,18.45
2018-09-15T02:13:30.640Z,18.52
2018-09-15T02:15:58.085Z,18.48
2018-09-15T02:18:25.513Z,18.44
2018-09-15T02:20:53.427Z,18.41
2018-09-15T02:23:20.858Z,18.37
2018-09-15T02:25:48.321Z,18.29
2018-09-15T02:28:15.743Z,18.23
2018-09-15T02:30:43.169Z,18.10
2018-09-15T02:33:10.643Z,17.95
2018-09-15T02:35:38.119Z,17.69
2018-09-15T02:38:05.574Z,17.56
2018-09-15T02:40:33.065Z,17.69
2018-09-15T02:43:00.521Z,17.85
2018-09-15T02:45:27.947Z,17.98
2018-09-15T02:47:55.545Z,18.05
2018-09-15T02:50:23.619Z,18.06
2018-09-15T02:52:51.106Z,18.13
2018-09-15T02:55:18.584Z,18.16
2018-09-15T02:57:46.013Z,18.16
2018-09-15T03:00:13.611Z,18.13
2018-09-15T03:02:41.090Z,18.15
2018-09-15T03:05:08.752Z,18.10
2018-09-15T03:07:36.179Z,18.14
2018-09-15T03:10:03.704Z,18.14
2018-09-15T03:12:31.937Z,18.12
2018-09-15T03:14:59.377Z,18.13
2018-09-15T03:17:26.861Z,18.14
2018-09-15T03:19:54.561Z,18.18
2018-09-15T03:22:21.991Z,18.08
2018-09-15T03:24:49.399Z,17.96
2018-09-15T03:27:16.837Z,17.92
2018-09-15T03:29:44.273Z,17.95
2018-09-15T03:32:11.727Z,17.97
2018-09-15T03:34:39.247Z,17.98
2018-09-15T03:37:06.666Z,17.96
2018-09-15T03:39:34.139Z,17.87
2018-09-15T03:42:01.644Z,17.74
2018-09-15T03:44:29.073Z,17.74
2018-09-15T03:46:56.607Z,17.77
2018-09-15T03:49:24.068Z,17.69
2018-09-15T03:51:51.659Z,17.64
2018-09-15T03:54:19.148Z,17.66
2018-09-15T03:56:46.601Z,17.39
2018-09-15T03:59:14.007Z,17.28
2018-09-15T04:01:41.479Z,17.15
2018-09-15T04:04:08.882Z,17.06
2018-09-15T04:06:36.308Z,16.97
2018-09-15T04:09:03.771Z,16.95
2018-09-15T04:11:31.190Z,16.85
2018-09-15T04:13:58.598Z,16.89
2018-09-15T04:16:26.042Z,16.97
2018-09-15T04:18:53.504Z,17.09
2018-09-15T04:21:21.005Z,17.16
2018-09-15T04:23:48.487Z,17.13
2018-09-15T04:26:15.950Z,17.19
2018-09-15T04:28:43.457Z,17.26
2018-09-15T04:31:10.861Z,17.33
2018-09-15T04:33:38.320Z,17.38
2018-09-15T04:36:05.792Z,17.39
2018-09-15T04:38:33.272Z,17.36
2018-09-15T04:41:00.758Z,17.27
2018-09-15T04:43:28.269Z,17.27
2018-09-15T04:45:55.676Z,17.28
2018-09-15T04:48:23.148Z,17.28
2018-09-15T04:50:50.567Z,17.16
2018-09-15T04:53:17.966Z,17.13
2018-09-15T04:55:45.440Z,17.11
2018-09-15T04:58:13.427Z,17.15
2018-09-15T05:00:40.837Z,17.21
2018-09-15T05:03:08.392Z,17.20
2018-09-15T05:05:35.856Z,17.18
2018-09-15T05:08:03.524Z,17.23
2018-09-15T05:10:31.053Z,17.25
2018-09-15T05:12:58.593Z,17.17
2018-09-15T05:15:26.030Z,17.11
2018-09-15T05:17:53.523Z,17.11
2018-09-15T05:20:20.988Z,17.11
2018-09-15T05:22:48.643Z,17.14
2018-09-15T05:25:16.043Z,17.19
2018-09-15T05:27:43.583Z,17.22
2018-09-15T05:30:11.017Z,17.18
2018-09-15T05:32:38.438Z,17.23
2018-09-15T05:35:05.888Z,17.27
2018-09-15T05:37:33.375Z,17.30
2018-09-15T05:40:01.079Z,17.41
2018-09-15T05:42:28.464Z,17.87
2018-09-15T05:44:55.922Z,18.38
2018-09-15T05:47:23.344Z,18.84
2018-09-15T05:49:51.575Z,19.21
2018-09-15T05:52:19.034Z,19.70
2018-09-15T05:54:46.537Z,20.16
2018-09-15T05:57:14.119Z,20.51
2018-09-15T05:59:41.539Z,20.78
2018-09-15T06:02:09.029Z,20.94
2018-09-15T06:04:36.495Z,21.20
2018-09-15T06:07:03.965Z,21.46
2018-09-15T06:09:31.407Z,21.56
2018-09-15T06:11:58.818Z,21.85
2018-09-15T06:14:26.469Z,22.07
2018-09-15T06:16:53.886Z,22.23
2018-09-15T06:19:21.399Z,21.90
2018-09-15T06:21:48.832Z,22.04
2018-09-15T06:24:16.290Z,22.09
2018-09-15T06:26:43.704Z,22.32
2018-09-15T06:29:11.200Z,22.61
2018-09-15T06:31:38.222Z,22.99
2018-09-15T06:34:05.163Z,23.29
2018-09-15T06:36:32.170Z,23.05
2018-09-15T06:38:59.203Z,23.20
2018-09-15T06:41:26.266Z,23.24
2018-09-15T06:43:53.224Z,23.86
2018-09-15T06:46:20.204Z,24.31
2018-09-15T06:48:48.455Z,24.60
2018-09-15T06:51:16.022Z,24.67
2018-09-15T06:53:43.518Z,24.43
2018-09-15T06:56:10.492Z,24.82
2018-09-15T06:58:37.487Z,25.61
2018-09-15T07:01:04.516Z,26.15
2018-09-15T07:03:31.571Z,26.51
2018-09-15T07:05:58.645Z,26.54
2018-09-15T07:08:25.678Z,26.18
2018-09-15T07:10:52.652Z,26.39
2018-09-15T07:13:19.635Z,26.73
2018-09-15T07:15:46.678Z,27.19
2018-09-15T07:18:13.744Z,27.23
2018-09-15T07:20:40.796Z,27.55
2018-09-15T07:23:07.883Z,27.97
2018-09-15T07:25:34.837Z,28.28
2018-09-15T07:28:01.921Z,28.11
2018-09-15T07:30:28.991Z,27.77
2018-09-15T07:32:55.985Z,28.28
2018-09-15T07:35:23.484Z,28.78
2018-09-15T07:37:50.927Z,29.36
2018-09-15T07:40:18.455Z,29.81
2018-09-15T07:42:45.618Z,30.16
2018-09-15T07:45:12.572Z,29.95
2018-09-15T07:47:39.692Z,29.60
2018-09-15T07:50:06.888Z,29.54
2018-09-15T07:52:33.990Z,29.15
2018-09-15T07:55:01.356Z,28.71
2018-09-15T07:57:28.553Z,28.56
2018-09-15T07:59:55.706Z,29.16
2018-09-15T08:02:22.739Z,29.22
2018-09-15T08:04:49.774Z,29.55
2018-09-15T08:07:17.750Z,29.45
2018-09-15T08:09:45.382Z,28.99
2018-09-15T08:12:13.370Z,29.58
2018-09-15T08:14:41.409Z,28.93
2018-09-15T08:17:09.019Z,28.82
2018-09-15T08:19:36.922Z,28.83
2018-09-15T08:22:04.593Z,29.14
2018-09-15T08:24:31.667Z,29.20
2018-09-15T08:26:58.895Z,29.47
2018-09-15T08:29:26.429Z,30.29
2018-09-15T08:31:53.620Z,30.33
2018-09-15T08:34:20.717Z,30.25
2018-09-15T08:36:48.514Z,30.16
2018-09-15T08:39:16.660Z,30.14
2018-09-15T08:41:44.614Z,29.47
2018-09-15T08:44:12.247Z,29.27
2018-09-15T08:46:39.822Z,29.36
2018-09-15T08:49:07.837Z,29.53
2018-09-15T08:51:35.914Z,29.39
2018-09-15T08:54:03.905Z,29.02
2018-09-15T08:56:31.674Z,28.82
2018-09-15T08:58:59.752Z,28.39
2018-09-15T09:01:27.815Z,28.24
2018-09-15T09:03:56.090Z,28.11
2018-09-15T09:06:25.316Z,28.63
2018-09-15T09:08:53.806Z,28.65
2018-09-15T09:11:22.287Z,28.39
2018-09-15T09:13:50.824Z,27.70
2018-09-15T09:16:19.453Z,27.70
2018-09-15T09:18:47.959Z,27.56
2018-09-15T09:21:16.469Z,27.22
2018-09-15T09:23:44.908Z,27.20
2018-09-15T09:26:13.480Z,27.35
2018-09-15T09:28:42.073Z,27.39
2018-09-15T09:31:11.009Z,27.43
2018-09-15T09:33:39.253Z,27.12
2018-09-15T09:36:07.931Z,27.07
2018-09-15T09:38:36.465Z,27.39
2018-09-15T09:41:05.797Z,27.31
2018-09-15T09:43:34.606Z,27.47
2018-09-15T09:46:03.336Z,27.08
2018-09-15T09:48:32.014Z,27.07
2018-09-15T09:51:01.249Z,27.08
2018-09-15T09:53:30.372Z,26.65
2018-09-15T09:56:03.622Z,26.56
2018-09-15T09:58:32.045Z,26.66
2018-09-15T10:01:00.528Z,27.06
2018-09-15T10:03:29.058Z,27.04
2018-09-15T10:05:57.486Z,27.10
2018-09-15T10:08:26.370Z,27.12
2018-09-15T10:10:54.667Z,27.33
2018-09-15T10:13:23.138Z,27.35
2018-09-15T10:15:51.876Z,27.50
2018-09-15T10:18:20.591Z,27.81
2018-09-15T10:20:49.048Z,27.63
2018-09-15T10:23:17.509Z,27.28
2018-09-15T10:25:45.976Z,27.40
2018-09-15T10:28:14.484Z,27.48
2018-09-15T10:30:42.931Z,27.73
2018-09-15T10:33:11.451Z,27.94
2018-09-15T10:35:39.395Z,27.86
2018-09-15T10:38:07.949Z,28.00
2018-09-15T10:40:36.011Z,27.95
2018-09-15T10:43:03.665Z,27.80
2018-09-15T10:45:32.935Z,27.56
2018-09-15T10:48:01.480Z,27.80
2018-09-15T10:50:31.193Z,27.95
2018-09-15T10:52:59.343Z,28.07
2018-09-15T10:55:27.509Z,28.13
2018-09-15T10:57:56.007Z,27.95
2018-09-15T11:00:25.319Z,27.96
2018-09-15T11:02:54.260Z,27.90
2018-09-15T11:05:22.734Z,27.95
2018-09-15T11:07:51.120Z,28.19
2018-09-15T11:10:19.707Z,28.62
2018-09-15T11:12:48.137Z,28.43
2018-09-15T11:15:16.906Z,28.86
2018-09-15T11:17:46.113Z,29.41
2018-09-15T11:20:14.815Z,29.11
2018-09-15T11:22:43.230Z,29.18
2018-09-15T11:25:12.443Z,29.24
2018-09-15T11:27:40.858Z,29.21
2018-09-15T11:30:09.966Z,28.73
2018-09-15T11:32:38.483Z,28.42
2018-09-15T11:35:06.969Z,28.46
2018-09-15T11:37:35.618Z,28.48
2018-09-15T11:40:03.609Z,28.41
2018-09-15T11:42:32.163Z,28.69
2018-09-15T11:45:00.779Z,28.64
2018-09-15T11:47:29.330Z,28.59
2018-09-15T11:49:57.812Z,28.61
2018-09-15T11:52:26.383Z,28.48
2018-09-15T11:54:56.248Z,28.61
2018-09-15T11:57:24.897Z,28.89
2018-09-15T11:59:53.432Z,29.39
2018-09-15T12:02:21.888Z,29.26
2018-09-15T12:04:50.330Z,28.76
2018-09-15T12:07:18.805Z,28.91
2018-09-15T12:09:47.350Z,29.15
2018-09-15T12:12:15.820Z,28.91
2018-09-15T12:14:44.514Z,28.76
2018-09-15T12:17:12.932Z,28.98
2018-09-15T12:19:41.477Z,29.14
2018-09-15T12:22:10.124Z,29.17
2018-09-15T12:24:38.648Z,29.11
2018-09-15T12:27:06.576Z,29.17
2018-09-15T12:29:35.195Z,29.13
2018-09-15T12:32:03.642Z,29.13
2018-09-15T12:34:32.107Z,29.32
2018-09-15T12:37:01.013Z,29.38
2018-09-15T12:39:29.803Z,29.28
2018-09-15T12:41:58.824Z,29.60
2018-09-15T12:44:27.468Z,29.51
2018-09-15T12:46:56.159Z,29.39
2018-09-15T12:49:24.705Z,29.63
2018-09-15T12:51:53.142Z,29.56
2018-09-15T12:54:21.824Z,29.46
2018-09-15T12:56:50.283Z,29.63
2018-09-15T12:59:18.819Z,29.86
2018-09-15T13:01:47.293Z,29.83
2018-09-15T13:04:15.840Z,29.63
2018-09-15T13:06:44.223Z,29.78
2018-09-15T13:09:12.936Z,29.70
2018-09-15T13:11:40.919Z,29.68
2018-09-15T13:14:10.104Z,29.69
2018-09-15T13:16:38.753Z,29.71
2018-09-15T13:19:07.272Z,29.92
2018-09-15T13:21:35.722Z,29.79
2018-09-15T13:24:04.414Z,29.97
2018-09-15T13:26:32.886Z,30.28
2018-09-15T13:29:01.406Z,30.10
2018-09-15T13:31:29.576Z,30.09
2018-09-15T13:33:58.367Z,30.07
2018-09-15T13:36:26.839Z,29.85
2018-09-15T13:38:55.590Z,29.79
2018-09-15T13:41:24.183Z,29.53
2018-09-15T13:43:52.372Z,29.51
2018-09-15T13:46:20.977Z,29.35
2018-09-15T13:48:49.132Z,29.20
2018-09-15T13:51:17.739Z,29.32
2018-09-15T13:53:46.058Z,29.73
2018-09-15T13:56:14.661Z,29.76
2018-09-15T13:58:43.247Z,29.93
2018-09-15T14:01:11.472Z,30.26
2018-09-15T14:03:39.946Z,30.49
2018-09-15T14:06:08.433Z,30.14
2018-09-15T14:08:37.059Z,29.92
2018-09-15T14:11:05.612Z,30.07
2018-09-15T14:13:34.250Z,30.11
2018-09-15T14:16:02.243Z,29.78
2018-09-15T14:18:30.436Z,29.61
2018-09-15T14:20:58.870Z,29.57
2018-09-15T14:23:27.342Z,29.61
2018-09-15T14:25:55.825Z,29.82
2018-09-15T14:28:24.499Z,29.93
2018-09-15T14:30:52.616Z,29.93
2018-09-15T14:33:20.404Z,29.73
2018-09-15T14:35:48.941Z,29.55
2018-09-15T14:38:17.653Z,29.54
2018-09-15T14:40:46.518Z,29.50
2018-09-15T14:43:15.119Z,29.27
2018-09-15T14:45:43.697Z,29.18
2018-09-15T14:48:13.288Z,29.33
2018-09-15T14:50:41.900Z,29.48
2018-09-15T14:53:09.857Z,29.38
2018-09-15T14:55:38.460Z,29.24
2018-09-15T14:58:06.913Z,29.15
2018-09-15T15:00:35.441Z,29.06
2018-09-15T15:03:04.283Z,29.04
2018-09-15T15:05:32.749Z,29.35
2018-09-15T15:08:00.755Z,29.32
2018-09-15T15:10:29.309Z,29.05
2018-09-15T15:12:57.796Z,28.94
2018-09-15T15:15:26.340Z,28.93
2018-09-15T15:17:54.953Z,28.91
2018-09-15T15:20:24.165Z,29.03
2018-09-15T15:22:52.956Z,29.06
2018-09-15T15:25:21.472Z,28.91
2018-09-15T15:27:50.122Z,28.70
2018-09-15T15:30:18.784Z,28.61
2018-09-15T15:32:48.227Z,28.50
2018-09-15T15:35:16.838Z,28.38
2018-09-15T15:37:45.296Z,28.54
2018-09-15T15:40:13.957Z,28.48
2018-09-15T15:42:42.694Z,28.49
2018-09-15T15:45:11.769Z,28.52
2018-09-15T15:47:40.055Z,28.37
2018-09-15T15:50:08.327Z,28.28
2018-09-15T15:52:36.392Z,28.29
2018-09-15T15:55:04.778Z,28.33
2018-09-15T15:57:33.790Z,28.33
2018-09-15T16:00:03.395Z,28.32
2018-09-15T16:02:31.502Z,28.28
2018-09-15T16:04:59.618Z,28.26
2018-09-15T16:07:27.815Z,28.14
2018-09-15T16:09:56.583Z,27.99
2018-09-15T16:12:25.020Z,28.06
2018-09-15T16:14:53.537Z,28.01
2018-09-15T16:17:22.028Z,27.96
2018-09-15T16:19:51.538Z,27.86
2018-09-15T16:22:20.020Z,27.80
2018-09-15T16:24:48.589Z,27.71
2018-09-15T16:27:17.158Z,27.80
2018-09-15T16:29:45.371Z,27.68
2018-09-15T16:32:13.536Z,27.59
2018-09-15T16:34:41.840Z,27.56
2018-09-15T16:37:10.299Z,27.55
2018-09-15T16:39:39.178Z,27.45
2018-09-15T16:42:07.625Z,27.27
2018-09-15T16:44:36.151Z,27.23
2018-09-15T16:47:05.011Z,27.19
2018-09-15T16:49:33.500Z,27.05
2018-09-15T16:52:02.199Z,26.97
2018-09-15T16:54:30.362Z,26.91
2018-09-15T16:56:58.612Z,26.86
2018-09-15T16:59:26.734Z,26.84
2018-09-15T17:01:54.770Z,26.75
2018-09-15T17:04:22.856Z,26.65
2018-09-15T17:06:50.927Z,26.51
2018-09-15T17:09:18.857Z,26.51
2018-09-15T17:11:46.826Z,26.45
2018-09-15T17:14:14.999Z,26.41
2018-09-15T17:16:43.182Z,26.33
2018-09-15T17:19:11.914Z,26.19
2018-09-15T17:21:40.124Z,26.14
2018-09-15T17:24:08.385Z,26.05
2018-09-15T17:26:37.337Z,26.00
2018-09-15T17:29:06.363Z,25.87
2018-09-15T17:31:35.005Z,25.70
2018-09-15T17:34:03.412Z,25.54
2018-09-15T17:36:32.334Z,25.47
2018-09-15T17:39:00.495Z,25.37
2018-09-15T17:41:28.415Z,25.30
2018-09-15T17:43:56.708Z,25.18
2018-09-15T17:46:26.287Z,25.04
2018-09-15T17:48:55.111Z,24.96
2018-09-15T17:51:23.184Z,24.91
2018-09-15T17:53:51.576Z,24.86
2018-09-15T17:56:20.225Z,24.76
2018-09-15T17:58:48.275Z,24.67
2018-09-15T18:01:16.767Z,24.60
2018-09-15T18:03:44.793Z,24.47
2018-09-15T18:06:13.372Z,24.45
2018-09-15T18:08:41.811Z,24.36
2018-09-15T18:11:10.293Z,24.33
2018-09-15T18:13:38.320Z,24.25
2018-09-15T18:16:06.472Z,24.20
2018-09-15T18:18:34.443Z,24.11
2018-09-15T18:21:02.629Z,24.03
2018-09-15T18:23:30.988Z,24.03
2018-09-15T18:25:59.083Z,24.03
2018-09-15T18:28:27.109Z,24.01
2018-09-15T18:30:55.112Z,23.98
2018-09-15T18:33:23.388Z,23.90
2018-09-15T18:35:51.773Z,23.82
2018-09-15T18:38:19.962Z,23.83
2018-09-15T18:40:48.056Z,23.79
2018-09-15T18:43:16.294Z,23.72
2018-09-15T18:45:46.002Z,23.66
2018-09-15T18:48:14.068Z,23.59
2018-09-15T18:50:42.397Z,23.52
2018-09-15T18:53:10.723Z,23.47
2018-09-15T18:55:39.309Z,23.43
2018-09-15T18:58:08.021Z,23.38
2018-09-15T19:00:36.657Z,23.34
2018-09-15T19:03:05.328Z,23.27
2018-09-15T19:05:33.765Z,23.23
2018-09-15T19:08:02.301Z,23.17
2018-09-15T19:10:30.786Z,23.14
2018-09-15T19:12:59.672Z,23.13
2018-09-15T19:15:27.659Z,23.08
2018-09-15T19:17:55.516Z,23.04
2018-09-15T19:20:23.737Z,22.98
2018-09-15T19:22:51.987Z,22.92
2018-09-15T19:25:19.993Z,22.88
2018-09-15T19:27:48.402Z,22.80
2018-09-15T19:30:16.786Z,22.78
2018-09-15T19:32:45.349Z,22.75
2018-09-15T19:35:14.689Z,22.71
2018-09-15T19:37:43.269Z,22.72
2018-09-15T19:40:11.743Z,22.72
2018-09-15T19:42:41.771Z,22.75
2018-09-15T19:45:10.352Z,22.73
2018-09-15T19:47:39.877Z,22.68
2018-09-15T19:50:08.325Z,22.69
2018-09-15T19:52:37.373Z,22.68
2018-09-15T19:55:06.190Z,22.67
2018-09-15T19:57:34.829Z,22.67
2018-09-15T20:00:03.766Z,22.73
2018-09-15T20:02:32.413Z,22.69
2018-09-15T20:05:01.021Z,22.63
2018-09-15T20:07:29.742Z,22.57
2018-09-15T20:09:58.264Z,22.54
2018-09-15T20:12:26.725Z,22.50
2018-09-15T20:14:55.212Z,22.42
2018-09-15T20:17:23.268Z,22.42
2018-09-15T20:19:51.334Z,22.40
2018-09-15T20:22:20.666Z,22.39
2018-09-15T20:24:49.338Z,22.31
2018-09-15T20:27:18.036Z,22.24
2018-09-15T20:29:46.549Z,22.21
2018-09-15T20:32:15.369Z,22.22
2018-09-15T20:34:43.865Z,22.21
2018-09-15T20:37:12.374Z,22.21
2018-09-15T20:39:41.054Z,22.16
2018-09-15T20:42:09.631Z,22.05
2018-09-15T20:44:37.918Z,22.02
2018-09-15T20:47:06.477Z,22.03
2018-09-15T20:49:35.143Z,22.12
2018-09-15T20:52:03.846Z,22.24
2018-09-15T20:54:32.516Z,22.21
2018-09-15T20:57:01.254Z,22.10
2018-09-15T20:59:31.018Z,22.23
2018-09-15T21:01:59.803Z,22.23
2018-09-15T21:04:28.496Z,22.28
2018-09-15T21:06:57.013Z,22.29
2018-09-15T21:09:25.683Z,22.32
2018-09-15T21:11:54.147Z,22.34
2018-09-15T21:14:22.668Z,22.33
2018-09-15T21:16:51.113Z,22.31
2018-09-15T21:19:19.916Z,22.30
2018-09-15T21:21:48.483Z,22.24
2018-09-15T21:24:16.963Z,22.20
2018-09-15T21:26:45.455Z,22.11
2018-09-15T21:29:14.061Z,22.14
2018-09-15T21:31:42.842Z,22.13
2018-09-15T21:34:11.371Z,22.08
2018-09-15T21:36:39.872Z,21.95
2018-09-15T21:39:08.755Z,21.93
2018-09-15T21:41:42.992Z,21.91
2018-09-15T21:44:11.518Z,21.83
2018-09-15T21:46:40.827Z,21.86
2018-09-15T21:49:09.477Z,21.83
2018-09-15T21:51:37.976Z,21.84
2018-09-15T21:54:06.723Z,21.82
2018-09-15T21:56:35.408Z,21.81
2018-09-15T21:59:03.842Z,21.79
2018-09-15T22:01:32.277Z,21.82
2018-09-15T22:04:00.786Z,21.81
2018-09-15T22:06:29.481Z,21.76
2018-09-15T22:08:58.109Z,21.80
2018-09-15T22:11:25.993Z,21.84
2018-09-15T22:13:54.229Z,21.84
2018-09-15T22:16:22.241Z,21.77
2018-09-15T22:18:51.124Z,21.72
2018-09-15T22:21:19.377Z,21.69
2018-09-15T22:23:47.476Z,21.66
2018-09-15T22:26:16.732Z,21.62
2018-09-15T22:28:44.442Z,21.62
2018-09-15T22:31:12.280Z,21.64
2018-09-15T22:33:40.000Z,21.61
2018-09-15T22:36:07.475Z,21.44
2018-09-15T22:38:34.938Z,21.25
2018-09-15T22:41:02.345Z,21.12
2018-09-15T22:43:29.885Z,21.14
2018-09-15T22:45:57.314Z,21.11
2018-09-15T22:48:24.784Z,21.09
2018-09-15T22:50:52.271Z,21.15
2018-09-15T22:53:19.676Z,21.14
2018-09-15T22:55:47.122Z,21.06
2018-09-15T22:58:14.542Z,21.04
2018-09-15T23:00:41.979Z,21.04
2018-09-15T23:03:09.525Z,21.06
2018-09-15T23:05:46.313Z,20.91
2018-09-15T23:08:13.893Z,20.82
2018-09-15T23:10:41.343Z,20.83
2018-09-15T23:13:08.778Z,20.66
2018-09-15T23:15:36.223Z,20.50
2018-09-15T23:18:03.674Z,20.31
2018-09-15T23:20:32.395Z,20.19
2018-09-15T23:22:59.800Z,20.00
2018-09-15T23:25:27.575Z,19.89
2018-09-15T23:27:55.000Z,19.80
2018-09-15T23:30:22.638Z,19.75
2018-09-15T23:32:50.105Z,19.70
2018-09-15T23:35:17.685Z,19.64
2018-09-15T23:37:45.179Z,19.63
2018-09-15T23:40:12.637Z,19.75
2018-09-15T23:42:40.613Z,19.72
2018-09-15T23:45:08.047Z,19.51
2018-09-15T23:47:38.482Z,19.24
2018-09-15T23:50:05.892Z,19.20
2018-09-15T23:52:41.950Z,19.23
2018-09-15T23:55:10.131Z,19.29
2018-09-15T23:57:37.541Z,19.31
